sensor_id;sensor_type;location;lat;lon;timestamp;pressure;altitude;pressure_sealevel;temperature;humidity
76374;BME280;65197;50.164;8.012;2023-12-22T00:00:08;72812.44;;;-144.13;100.00
76374;BME280;65197;50.164;8.012;2023-12-22T00:02:34;72824.13;;;-144.13;100.00
76374;BME280;65197;50.164;8.012;2023-12-22T00:04:59;72833.88;;;-144.13;100.00
76374;BME280;65197;50.164;8.012;2023-12-22T00:07:25;72824.13;;;-144.13;100.00
76374;BME280;65197;50.164;8.012;2023-12-22T00:09:50;72824.13;;;-144.13;100.00
76374;BME280;65197;50.164;8.012;2023-12-22T00:12:15;72826.06;;;-144.13;100.00
76374;BME280;65197;50.164;8.012;2023-12-22T00:14:41;72839.72;;;-144.13;100.00
76374;BME280;65197;50.164;8.012;2023-12-22T00:17:07;72816.31;;;-144.13;100.00
76374;BME280;65197;50.164;8.012;2023-12-22T00:19:32;72812.44;;;-144.13;100.00
76374;BME280;65197;50.164;8.012;2023-12-22T00:21:58;72826.06;;;-144.13;100.00
76374;BME280;65197;50.164;8.012;2023-12-22T00:24:24;72824.13;;;-144.13;100.00
76374;BME280;65197;50.164;8.012;2023-12-22T00:26:49;72804.63;;;-144.13;100.00
76374;BME280;65197;50.164;8.012;2023-12-22T00:29:15;72792.94;;;-144.13;100.00
76374;BME280;65197;50.164;8.012;2023-12-22T00:31:40;72785.13;;;-144.13;100.00
76374;BME280;65197;50.164;8.012;2023-12-22T00:34:05;72789.03;;;-144.13;100.00
76374;BME280;65197;50.164;8.012;2023-12-22T00:36:31;72781.22;;;-144.13;100.00
76374;BME280;65197;50.164;8.012;2023-12-22T00:38:56;72777.31;;;-144.13;100.00
76374;BME280;65197;50.164;8.012;2023-12-22T00:41:21;72765.63;;;-144.13;100.00
76374;BME280;65197;50.164;8.012;2023-12-22T00:43:47;72753.91;;;-144.13;100.00
76374;BME280;65197;50.164;8.012;2023-12-22T00:46:13;72750.00;;;-144.13;100.00
76374;BME280;65197;50.164;8.012;2023-12-22T00:48:39;72765.63;;;-144.13;100.00
76374;BME280;65197;50.164;8.012;2023-12-22T00:51:06;72753.91;;;-144.13;100.00
76374;BME280;65197;50.164;8.012;2023-12-22T00:53:32;72751.97;;;-144.13;100.00
76374;BME280;65197;50.164;8.012;2023-12-22T00:55:59;72753.91;;;-144.13;100.00
76374;BME280;65197;50.164;8.012;2023-12-22T00:58:24;72746.13;;;-144.13;100.00
76374;BME280;65197;50.164;8.012;2023-12-22T01:00:50;72767.56;;;-144.13;100.00
76374;BME280;65197;50.164;8.012;2023-12-22T01:03:15;72771.47;;;-144.13;100.00
76374;BME280;65197;50.164;8.012;2023-12-22T01:05:41;72781.22;;;-144.13;100.00
76374;BME280;65197;50.164;8.012;2023-12-22T01:08:06;72820.22;;;-144.13;100.00
76374;BME280;65197;50.164;8.012;2023-12-22T01:10:32;72802.69;;;-144.13;100.00
76374;BME280;65197;50.164;8.012;2023-12-22T01:12:57;72808.53;;;-144.13;100.00
76374;BME280;65197;50.164;8.012;2023-12-22T01:15:22;72835.84;;;-144.13;100.00
76374;BME280;65197;50.164;8.012;2023-12-22T01:17:48;72843.63;;;-144.13;100.00
76374;BME280;65197;50.164;8.012;2023-12-22T01:20:13;72855.34;;;-144.13;100.00
76374;BME280;65197;50.164;8.012;2023-12-22T01:22:39;72861.19;;;-144.13;100.00
76374;BME280;65197;50.164;8.012;2023-12-22T01:25:05;72863.13;;;-144.13;100.00
76374;BME280;65197;50.164;8.012;2023-12-22T01:27:31;72878.75;;;-144.13;100.00
76374;BME280;65197;50.164;8.012;2023-12-22T01:29:56;72857.28;;;-144.13;100.00
76374;BME280;65197;50.164;8.012;2023-12-22T01:32:22;72835.84;;;-144.13;100.00
76374;BME280;65197;50.164;8.012;2023-12-22T01:34:47;72851.44;;;-144.13;100.00
76374;BME280;65197;50.164;8.012;2023-12-22T01:37:12;72845.59;;;-144.13;100.00
76374;BME280;65197;50.164;8.012;2023-12-22T01:39:38;72847.53;;;-144.13;100.00
76374;BME280;65197;50.164;8.012;2023-12-22T01:42:04;72855.34;;;-144.13;100.00
76374;BME280;65197;50.164;8.012;2023-12-22T01:44:29;72859.25;;;-144.13;100.00
76374;BME280;65197;50.164;8.012;2023-12-22T01:46:55;72853.38;;;-144.13;100.00
76374;BME280;65197;50.164;8.012;2023-12-22T01:49:21;72833.88;;;-144.13;100.00
76374;BME280;65197;50.164;8.012;2023-12-22T01:51:47;72847.53;;;-144.13;100.00
76374;BME280;65197;50.164;8.012;2023-12-22T01:54:14;72839.72;;;-144.13;100.00
76374;BME280;65197;50.164;8.012;2023-12-22T01:56:44;72845.59;;;-144.13;100.00
76374;BME280;65197;50.164;8.012;2023-12-22T01:59:10;72853.38;;;-144.13;100.00
76374;BME280;65197;50.164;8.012;2023-12-22T02:01:36;72859.25;;;-144.13;100.00
76374;BME280;65197;50.164;8.012;2023-12-22T02:04:03;72863.13;;;-144.13;100.00
76374;BME280;65197;50.164;8.012;2023-12-22T02:06:30;72863.13;;;-144.13;100.00
76374;BME280;65197;50.164;8.012;2023-12-22T02:08:57;72855.34;;;-144.13;100.00
76374;BME280;65197;50.164;8.012;2023-12-22T02:11:24;72855.34;;;-144.13;100.00
76374;BME280;65197;50.164;8.012;2023-12-22T02:13:49;72851.44;;;-144.13;100.00
76374;BME280;65197;50.164;8.012;2023-12-22T02:16:23;72845.59;;;-144.13;100.00
76374;BME280;65197;50.164;8.012;2023-12-22T02:18:52;72843.63;;;-144.13;100.00
76374;BME280;65197;50.164;8.012;2023-12-22T02:21:20;72837.78;;;-144.13;100.00
76374;BME280;65197;50.164;8.012;2023-12-22T02:23:47;72837.78;;;-144.13;100.00
76374;BME280;65197;50.164;8.012;2023-12-22T02:26:37;72816.31;;;-144.13;100.00
76374;BME280;65197;50.164;8.012;2023-12-22T02:29:08;72824.13;;;-144.13;100.00
76374;BME280;65197;50.164;8.012;2023-12-22T02:31:40;72851.44;;;-144.13;100.00
76374;BME280;65197;50.164;8.012;2023-12-22T02:34:13;72849.47;;;-144.13;100.00
76374;BME280;65197;50.164;8.012;2023-12-22T02:36:40;72841.69;;;-144.13;100.00
76374;BME280;65197;50.164;8.012;2023-12-22T02:39:07;72843.63;;;-144.13;100.00
76374;BME280;65197;50.164;8.012;2023-12-22T02:41:34;72831.94;;;-144.13;100.00
76374;BME280;65197;50.164;8.012;2023-12-22T02:44:01;72855.34;;;-144.13;100.00
76374;BME280;65197;50.164;8.012;2023-12-22T02:46:26;72855.34;;;-144.13;100.00
76374;BME280;65197;50.164;8.012;2023-12-22T02:48:52;72851.44;;;-144.13;100.00
76374;BME280;65197;50.164;8.012;2023-12-22T02:51:17;72849.47;;;-144.13;100.00
76374;BME280;65197;50.164;8.012;2023-12-22T02:53:42;72839.72;;;-144.13;100.00
76374;BME280;65197;50.164;8.012;2023-12-22T02:56:08;72849.47;;;-144.13;100.00
76374;BME280;65197;50.164;8.012;2023-12-22T02:58:33;72853.38;;;-144.13;100.00
76374;BME280;65197;50.164;8.012;2023-12-22T03:00:59;72851.44;;;-144.13;100.00
76374;BME280;65197;50.164;8.012;2023-12-22T03:03:24;72843.63;;;-144.13;100.00
76374;BME280;65197;50.164;8.012;2023-12-22T03:05:49;72845.59;;;-144.13;100.00
76374;BME280;65197;50.164;8.012;2023-12-22T03:08:15;72839.72;;;-144.13;100.00
76374;BME280;65197;50.164;8.012;2023-12-22T03:10:40;72818.28;;;-144.13;100.00
76374;BME280;65197;50.164;8.012;2023-12-22T03:13:06;72828.03;;;-144.13;100.00
76374;BME280;65197;50.164;8.012;2023-12-22T03:15:31;72816.31;;;-144.13;100.00
76374;BME280;65197;50.164;8.012;2023-12-22T03:17:56;72804.63;;;-144.13;100.00
76374;BME280;65197;50.164;8.012;2023-12-22T03:20:22;72798.78;;;-144.13;100.00
76374;BME280;65197;50.164;8.012;2023-12-22T03:22:47;72796.81;;;-144.13;100.00
76374;BME280;65197;50.164;8.012;2023-12-22T03:25:13;72785.13;;;-144.13;100.00
76374;BME280;65197;50.164;8.012;2023-12-22T03:27:38;72779.28;;;-144.13;100.00
76374;BME280;65197;50.164;8.012;2023-12-22T03:30:04;72783.16;;;-144.13;100.00
76374;BME280;65197;50.164;8.012;2023-12-22T03:32:29;72765.63;;;-144.13;100.00
76374;BME280;65197;50.164;8.012;2023-12-22T03:34:55;72773.41;;;-144.13;100.00
76374;BME280;65197;50.164;8.012;2023-12-22T03:37:20;72769.53;;;-144.13;100.00
76374;BME280;65197;50.164;8.012;2023-12-22T03:39:45;72761.72;;;-144.13;100.00
76374;BME280;65197;50.164;8.012;2023-12-22T03:42:11;72748.06;;;-144.13;100.00
76374;BME280;65197;50.164;8.012;2023-12-22T03:44:36;72750.00;;;-144.13;100.00
76374;BME280;65197;50.164;8.012;2023-12-22T03:47:02;72757.81;;;-144.13;100.00
76374;BME280;65197;50.164;8.012;2023-12-22T03:49:27;72755.88;;;-144.13;100.00
76374;BME280;65197;50.164;8.012;2023-12-22T03:51:53;72738.31;;;-144.13;100.00
76374;BME280;65197;50.164;8.012;2023-12-22T03:54:18;72740.25;;;-144.13;100.00
76374;BME280;65197;50.164;8.012;2023-12-22T03:56:43;72738.31;;;-144.13;100.00
76374;BME280;65197;50.164;8.012;2023-12-22T03:59:09;72736.38;;;-144.13;100.00
76374;BME280;65197;50.164;8.012;2023-12-22T04:01:35;72750.00;;;-144.13;100.00
76374;BME280;65197;50.164;8.012;2023-12-22T04:04:00;72757.81;;;-144.13;100.00
76374;BME280;65197;50.164;8.012;2023-12-22T04:06:25;72767.56;;;-144.13;100.00
76374;BME280;65197;50.164;8.012;2023-12-22T04:08:52;72763.66;;;-144.13;100.00
76374;BME280;65197;50.164;8.012;2023-12-22T04:11:17;72769.53;;;-144.13;100.00
76374;BME280;65197;50.164;8.012;2023-12-22T04:13:43;72761.72;;;-144.13;100.00
76374;BME280;65197;50.164;8.012;2023-12-22T04:16:08;72753.91;;;-144.13;100.00
76374;BME280;65197;50.164;8.012;2023-12-22T04:18:33;72759.75;;;-144.13;100.00
76374;BME280;65197;50.164;8.012;2023-12-22T04:20:59;72765.63;;;-144.13;100.00
76374;BME280;65197;50.164;8.012;2023-12-22T04:23:24;72763.66;;;-144.13;100.00
76374;BME280;65197;50.164;8.012;2023-12-22T04:25:50;72773.41;;;-144.13;100.00
76374;BME280;65197;50.164;8.012;2023-12-22T04:28:15;72763.66;;;-144.13;100.00
76374;BME280;65197;50.164;8.012;2023-12-22T04:30:41;72763.66;;;-144.13;100.00
76374;BME280;65197;50.164;8.012;2023-12-22T04:33:06;72769.53;;;-144.13;100.00
76374;BME280;65197;50.164;8.012;2023-12-22T04:35:32;72773.41;;;-144.13;100.00
76374;BME280;65197;50.164;8.012;2023-12-22T04:37:57;72781.22;;;-144.13;100.00
76374;BME280;65197;50.164;8.012;2023-12-22T04:40:23;72781.22;;;-144.13;100.00
76374;BME280;65197;50.164;8.012;2023-12-22T04:42:48;72773.41;;;-144.13;100.00
76374;BME280;65197;50.164;8.012;2023-12-22T04:45:14;72775.38;;;-144.13;100.00
76374;BME280;65197;50.164;8.012;2023-12-22T04:47:40;72779.28;;;-144.13;100.00
76374;BME280;65197;50.164;8.012;2023-12-22T04:50:05;72790.97;;;-144.13;100.00
76374;BME280;65197;50.164;8.012;2023-12-22T04:52:30;72798.78;;;-144.13;100.00
76374;BME280;65197;50.164;8.012;2023-12-22T04:54:56;72792.94;;;-144.13;100.00
76374;BME280;65197;50.164;8.012;2023-12-22T04:57:21;72789.03;;;-144.13;100.00
76374;BME280;65197;50.164;8.012;2023-12-22T04:59:47;72804.63;;;-144.13;100.00
76374;BME280;65197;50.164;8.012;2023-12-22T05:02:13;72781.22;;;-144.13;100.00
76374;BME280;65197;50.164;8.012;2023-12-22T05:04:38;72785.13;;;-144.13;100.00
76374;BME280;65197;50.164;8.012;2023-12-22T05:07:03;72808.53;;;-144.13;100.00
76374;BME280;65197;50.164;8.012;2023-12-22T05:09:33;72794.88;;;-144.13;100.00
76374;BME280;65197;50.164;8.012;2023-12-22T05:11:58;72792.94;;;-144.13;100.00
76374;BME280;65197;50.164;8.012;2023-12-22T05:14:23;72792.94;;;-144.13;100.00
76374;BME280;65197;50.164;8.012;2023-12-22T05:16:49;72777.31;;;-144.13;100.00
76374;BME280;65197;50.164;8.012;2023-12-22T05:19:15;72781.22;;;-144.13;100.00
76374;BME280;65197;50.164;8.012;2023-12-22T05:21:40;72777.31;;;-144.13;100.00
76374;BME280;65197;50.164;8.012;2023-12-22T05:24:05;72769.53;;;-144.13;100.00
76374;BME280;65197;50.164;8.012;2023-12-22T05:26:31;72781.22;;;-144.13;100.00
76374;BME280;65197;50.164;8.012;2023-12-22T05:28:57;72777.31;;;-144.13;100.00
76374;BME280;65197;50.164;8.012;2023-12-22T05:31:22;72785.13;;;-144.13;100.00
76374;BME280;65197;50.164;8.012;2023-12-22T05:33:48;72781.22;;;-144.13;100.00
76374;BME280;65197;50.164;8.012;2023-12-22T05:36:13;72783.16;;;-144.13;100.00
76374;BME280;65197;50.164;8.012;2023-12-22T05:38:39;72790.97;;;-144.13;100.00
76374;BME280;65197;50.164;8.012;2023-12-22T05:41:05;72779.28;;;-144.13;100.00
76374;BME280;65197;50.164;8.012;2023-12-22T05:43:32;72794.88;;;-144.13;100.00
76374;BME280;65197;50.164;8.012;2023-12-22T05:45:58;72785.13;;;-144.13;100.00
76374;BME280;65197;50.164;8.012;2023-12-22T05:48:24;72773.41;;;-144.13;100.00
76374;BME280;65197;50.164;8.012;2023-12-22T05:50:49;72773.41;;;-144.13;100.00
76374;BME280;65197;50.164;8.012;2023-12-22T05:53:15;72773.41;;;-144.13;100.00
76374;BME280;65197;50.164;8.012;2023-12-22T05:55:40;72781.22;;;-144.13;100.00
76374;BME280;65197;50.164;8.012;2023-12-22T05:58:05;72781.22;;;-144.13;100.00
76374;BME280;65197;50.164;8.012;2023-12-22T06:00:31;72773.41;;;-144.13;100.00
76374;BME280;65197;50.164;8.012;2023-12-22T06:02:57;72781.22;;;-144.13;100.00
76374;BME280;65197;50.164;8.012;2023-12-22T06:05:22;72790.97;;;-144.13;100.00
76374;BME280;65197;50.164;8.012;2023-12-22T06:07:48;72777.31;;;-144.13;100.00
76374;BME280;65197;50.164;8.012;2023-12-22T06:10:13;72792.94;;;-144.13;100.00
76374;BME280;65197;50.164;8.012;2023-12-22T06:12:39;72785.13;;;-144.13;100.00
76374;BME280;65197;50.164;8.012;2023-12-22T06:15:05;72785.13;;;-144.13;100.00
76374;BME280;65197;50.164;8.012;2023-12-22T06:17:30;72785.13;;;-144.13;100.00
76374;BME280;65197;50.164;8.012;2023-12-22T06:19:56;72789.03;;;-144.13;100.00
76374;BME280;65197;50.164;8.012;2023-12-22T06:22:21;72792.94;;;-144.13;100.00
76374;BME280;65197;50.164;8.012;2023-12-22T06:24:48;72789.03;;;-144.13;100.00
76374;BME280;65197;50.164;8.012;2023-12-22T06:27:13;72792.94;;;-144.13;100.00
76374;BME280;65197;50.164;8.012;2023-12-22T06:29:39;72792.94;;;-144.13;100.00
76374;BME280;65197;50.164;8.012;2023-12-22T06:32:05;72796.81;;;-144.13;100.00
76374;BME280;65197;50.164;8.012;2023-12-22T06:34:31;72785.13;;;-144.13;100.00
76374;BME280;65197;50.164;8.012;2023-12-22T06:36:57;72781.22;;;-144.13;100.00
76374;BME280;65197;50.164;8.012;2023-12-22T06:39:22;72785.13;;;-144.13;100.00
76374;BME280;65197;50.164;8.012;2023-12-22T06:41:48;72785.13;;;-144.13;100.00
76374;BME280;65197;50.164;8.012;2023-12-22T06:44:13;72783.16;;;-144.13;100.00
76374;BME280;65197;50.164;8.012;2023-12-22T06:46:38;72785.13;;;-144.13;100.00
76374;BME280;65197;50.164;8.012;2023-12-22T06:49:04;72781.22;;;-144.13;100.00
76374;BME280;65197;50.164;8.012;2023-12-22T06:51:31;72767.56;;;-144.13;100.00
76374;BME280;65197;50.164;8.012;2023-12-22T06:53:57;72765.63;;;-144.13;100.00
76374;BME280;65197;50.164;8.012;2023-12-22T06:56:26;72775.38;;;-144.13;100.00
76374;BME280;65197;50.164;8.012;2023-12-22T06:58:54;72773.41;;;-144.13;100.00
76374;BME280;65197;50.164;8.012;2023-12-22T07:01:20;72636.91;;;-144.13;100.00
76374;BME280;65197;50.164;8.012;2023-12-22T07:03:47;72582.28;;;-144.13;100.00
76374;BME280;65197;50.164;8.012;2023-12-22T07:06:16;72453.56;;;-144.13;100.00
76374;BME280;65197;50.164;8.012;2023-12-22T07:08:42;72492.56;;;-144.13;100.00
76374;BME280;65197;50.164;8.012;2023-12-22T07:11:11;72605.69;;;-144.13;100.00
76374;BME280;65197;50.164;8.012;2023-12-22T07:13:37;72582.28;;;-144.13;100.00
76374;BME280;65197;50.164;8.012;2023-12-22T07:16:03;72652.50;;;-144.13;100.00
76374;BME280;65197;50.164;8.012;2023-12-22T07:18:29;72695.41;;;-144.13;100.00
76374;BME280;65197;50.164;8.012;2023-12-22T07:20:56;72722.72;;;-144.13;100.00
76374;BME280;65197;50.164;8.012;2023-12-22T07:23:22;72740.25;;;-144.13;100.00
76374;BME280;65197;50.164;8.012;2023-12-22T07:25:47;72742.22;;;-144.13;100.00
76374;BME280;65197;50.164;8.012;2023-12-22T07:28:13;72742.22;;;-144.13;100.00
76374;BME280;65197;50.164;8.012;2023-12-22T07:30:38;72757.81;;;-144.13;100.00
76374;BME280;65197;50.164;8.012;2023-12-22T07:33:04;72761.72;;;-144.13;100.00
76374;BME280;65197;50.164;8.012;2023-12-22T07:35:29;72753.91;;;-144.13;100.00
76374;BME280;65197;50.164;8.012;2023-12-22T07:37:54;72761.72;;;-144.13;100.00
76374;BME280;65197;50.164;8.012;2023-12-22T07:40:20;72765.63;;;-144.13;100.00
76374;BME280;65197;50.164;8.012;2023-12-22T07:42:45;72753.91;;;-144.13;100.00
76374;BME280;65197;50.164;8.012;2023-12-22T07:45:11;72769.53;;;-144.13;100.00
76374;BME280;65197;50.164;8.012;2023-12-22T07:47:36;72777.31;;;-144.13;100.00
76374;BME280;65197;50.164;8.012;2023-12-22T07:50:03;72761.72;;;-144.13;100.00
76374;BME280;65197;50.164;8.012;2023-12-22T07:52:28;72773.41;;;-144.13;100.00
76374;BME280;65197;50.164;8.012;2023-12-22T07:54:54;72693.47;;;-144.13;100.00
76374;BME280;65197;50.164;8.012;2023-12-22T07:57:19;72732.47;;;-144.13;100.00
76374;BME280;65197;50.164;8.012;2023-12-22T07:59:44;72777.31;;;-144.13;100.00
76374;BME280;65197;50.164;8.012;2023-12-22T08:02:10;72828.03;;;-144.13;100.00
76374;BME280;65197;50.164;8.012;2023-12-22T08:04:35;72847.53;;;-144.13;100.00
76374;BME280;65197;50.164;8.012;2023-12-22T08:07:00;72857.28;;;-144.13;100.00
76374;BME280;65197;50.164;8.012;2023-12-22T08:09:27;72839.72;;;-144.13;100.00
76374;BME280;65197;50.164;8.012;2023-12-22T08:11:52;72843.63;;;-144.13;100.00
76374;BME280;65197;50.164;8.012;2023-12-22T08:14:19;72855.34;;;-144.13;100.00
76374;BME280;65197;50.164;8.012;2023-12-22T08:16:44;72863.13;;;-144.13;100.00
76374;BME280;65197;50.164;8.012;2023-12-22T08:19:10;72870.94;;;-144.13;100.00
76374;BME280;65197;50.164;8.012;2023-12-22T08:21:35;72861.19;;;-144.13;100.00
76374;BME280;65197;50.164;8.012;2023-12-22T08:24:01;72870.94;;;-144.13;100.00
76374;BME280;65197;50.164;8.012;2023-12-22T08:26:26;72890.44;;;-144.13;100.00
76374;BME280;65197;50.164;8.012;2023-12-22T08:28:52;72909.94;;;-144.13;100.00
76374;BME280;65197;50.164;8.012;2023-12-22T08:31:17;72947.00;;;-144.13;100.00
76374;BME280;65197;50.164;8.012;2023-12-22T08:33:43;72937.25;;;-144.13;100.00
76374;BME280;65197;50.164;8.012;2023-12-22T08:36:10;72925.56;;;-144.13;100.00
76374;BME280;65197;50.164;8.012;2023-12-22T08:38:37;72898.25;;;-144.13;100.00
76374;BME280;65197;50.164;8.012;2023-12-22T08:41:06;72878.75;;;-144.13;100.00
76374;BME280;65197;50.164;8.012;2023-12-22T08:43:32;72882.63;;;-144.13;100.00
76374;BME280;65197;50.164;8.012;2023-12-22T08:45:58;72874.84;;;-144.13;100.00
76374;BME280;65197;50.164;8.012;2023-12-22T08:48:23;72874.84;;;-144.13;100.00
76374;BME280;65197;50.164;8.012;2023-12-22T08:50:48;72867.03;;;-144.13;100.00
76374;BME280;65197;50.164;8.012;2023-12-22T08:53:15;72870.94;;;-144.13;100.00
76374;BME280;65197;50.164;8.012;2023-12-22T08:55:40;72870.94;;;-144.13;100.00
76374;BME280;65197;50.164;8.012;2023-12-22T08:58:06;72869.00;;;-144.13;100.00
76374;BME280;65197;50.164;8.012;2023-12-22T09:00:31;72874.84;;;-144.13;100.00
76374;BME280;65197;50.164;8.012;2023-12-22T09:02:56;72857.28;;;-144.13;100.00
76374;BME280;65197;50.164;8.012;2023-12-22T09:05:22;72859.25;;;-144.13;100.00
76374;BME280;65197;50.164;8.012;2023-12-22T09:07:47;72845.59;;;-144.13;100.00
76374;BME280;65197;50.164;8.012;2023-12-22T09:10:13;72831.94;;;-144.13;100.00
76374;BME280;65197;50.164;8.012;2023-12-22T09:12:38;72824.13;;;-144.13;100.00
76374;BME280;65197;50.164;8.012;2023-12-22T09:15:04;72818.28;;;-144.13;100.00
76374;BME280;65197;50.164;8.012;2023-12-22T09:17:29;72808.53;;;-144.13;100.00
76374;BME280;65197;50.164;8.012;2023-12-22T09:19:54;72798.78;;;-144.13;100.00
76374;BME280;65197;50.164;8.012;2023-12-22T09:22:20;72800.72;;;-144.13;100.00
76374;BME280;65197;50.164;8.012;2023-12-22T09:24:46;72785.13;;;-144.13;100.00
76374;BME280;65197;50.164;8.012;2023-12-22T09:27:12;72789.03;;;-144.13;100.00
76374;BME280;65197;50.164;8.012;2023-12-22T09:29:38;72785.13;;;-144.13;100.00
76374;BME280;65197;50.164;8.012;2023-12-22T09:32:03;72790.97;;;-144.13;100.00
76374;BME280;65197;50.164;8.012;2023-12-22T09:34:29;72792.94;;;-144.13;100.00
76374;BME280;65197;50.164;8.012;2023-12-22T09:36:54;72781.22;;;-144.13;100.00
76374;BME280;65197;50.164;8.012;2023-12-22T09:39:20;72783.16;;;-144.13;100.00
76374;BME280;65197;50.164;8.012;2023-12-22T09:41:48;72777.31;;;-144.13;100.00
76374;BME280;65197;50.164;8.012;2023-12-22T09:44:19;72763.66;;;-144.13;100.00
76374;BME280;65197;50.164;8.012;2023-12-22T09:46:47;72761.72;;;-144.13;100.00
76374;BME280;65197;50.164;8.012;2023-12-22T09:49:14;72750.00;;;-144.13;100.00
76374;BME280;65197;50.164;8.012;2023-12-22T09:51:40;72750.00;;;-144.13;100.00
76374;BME280;65197;50.164;8.012;2023-12-22T09:54:07;72748.06;;;-144.13;100.00
76374;BME280;65197;50.164;8.012;2023-12-22T09:56:35;72748.06;;;-144.13;100.00
76374;BME280;65197;50.164;8.012;2023-12-22T09:59:07;72732.47;;;-144.13;100.00
76374;BME280;65197;50.164;8.012;2023-12-22T10:01:34;72726.63;;;-144.13;100.00
76374;BME280;65197;50.164;8.012;2023-12-22T10:04:00;72726.63;;;-144.13;100.00
76374;BME280;65197;50.164;8.012;2023-12-22T10:06:25;72714.91;;;-144.13;100.00
76374;BME280;65197;50.164;8.012;2023-12-22T10:08:52;72707.09;;;-144.13;100.00
76374;BME280;65197;50.164;8.012;2023-12-22T10:11:18;72703.22;;;-144.13;100.00
76374;BME280;65197;50.164;8.012;2023-12-22T10:13:46;72695.41;;;-144.13;100.00
76374;BME280;65197;50.164;8.012;2023-12-22T10:16:14;72693.47;;;-144.13;100.00
76374;BME280;65197;50.164;8.012;2023-12-22T10:18:39;72687.59;;;-144.13;100.00
76374;BME280;65197;50.164;8.012;2023-12-22T10:21:05;72683.69;;;-144.13;100.00
76374;BME280;65197;50.164;8.012;2023-12-22T10:23:30;72679.81;;;-144.13;100.00
76374;BME280;65197;50.164;8.012;2023-12-22T10:25:57;72675.91;;;-144.13;100.00
76374;BME280;65197;50.164;8.012;2023-12-22T10:28:23;72672.00;;;-144.13;100.00
76374;BME280;65197;50.164;8.012;2023-12-22T10:30:52;72670.06;;;-144.13;100.00
76374;BME280;65197;50.164;8.012;2023-12-22T10:33:18;72668.09;;;-144.13;100.00
76374;BME280;65197;50.164;8.012;2023-12-22T10:35:44;72656.41;;;-144.13;100.00
76374;BME280;65197;50.164;8.012;2023-12-22T10:38:10;72648.59;;;-144.13;100.00
76374;BME280;65197;50.164;8.012;2023-12-22T10:40:37;72636.91;;;-144.13;100.00
76374;BME280;65197;50.164;8.012;2023-12-22T10:43:03;72633.00;;;-144.13;100.00
76374;BME280;65197;50.164;8.012;2023-12-22T10:45:29;72619.34;;;-144.13;100.00
76374;BME280;65197;50.164;8.012;2023-12-22T10:47:56;72613.50;;;-144.13;100.00
76374;BME280;65197;50.164;8.012;2023-12-22T10:50:24;72609.59;;;-144.13;100.00
76374;BME280;65197;50.164;8.012;2023-12-22T10:52:51;72607.66;;;-144.13;100.00
76374;BME280;65197;50.164;8.012;2023-12-22T10:55:16;72605.69;;;-144.13;100.00
76374;BME280;65197;50.164;8.012;2023-12-22T10:57:45;72590.09;;;-144.13;100.00
76374;BME280;65197;50.164;8.012;2023-12-22T11:00:11;72594.00;;;-144.13;100.00
76374;BME280;65197;50.164;8.012;2023-12-22T11:02:42;72588.13;;;-144.13;100.00
76374;BME280;65197;50.164;8.012;2023-12-22T11:05:10;72582.28;;;-144.13;100.00
76374;BME280;65197;50.164;8.012;2023-12-22T11:07:37;72580.34;;;-144.13;100.00
76374;BME280;65197;50.164;8.012;2023-12-22T11:10:06;72580.34;;;-144.13;100.00
76374;BME280;65197;50.164;8.012;2023-12-22T11:12:42;72584.25;;;-144.13;100.00
76374;BME280;65197;50.164;8.012;2023-12-22T11:15:10;72582.28;;;-144.13;100.00
76374;BME280;65197;50.164;8.012;2023-12-22T11:17:39;72580.34;;;-144.13;100.00
76374;BME280;65197;50.164;8.012;2023-12-22T11:20:06;72570.59;;;-144.13;100.00
76374;BME280;65197;50.164;8.012;2023-12-22T11:22:32;72578.38;;;-144.13;100.00
76374;BME280;65197;50.164;8.012;2023-12-22T11:24:58;72570.59;;;-144.13;100.00
76374;BME280;65197;50.164;8.012;2023-12-22T11:27:25;72558.88;;;-144.13;100.00
76374;BME280;65197;50.164;8.012;2023-12-22T11:29:52;72549.13;;;-144.13;100.00
76374;BME280;65197;50.164;8.012;2023-12-22T11:32:18;72537.44;;;-144.13;100.00
76374;BME280;65197;50.164;8.012;2023-12-22T11:34:47;72543.28;;;-144.13;100.00
76374;BME280;65197;50.164;8.012;2023-12-22T11:37:15;72545.22;;;-144.13;100.00
76374;BME280;65197;50.164;8.012;2023-12-22T11:39:41;72543.28;;;-144.13;100.00
76374;BME280;65197;50.164;8.012;2023-12-22T11:42:17;72543.28;;;-144.13;100.00
76374;BME280;65197;50.164;8.012;2023-12-22T11:44:43;72531.59;;;-144.13;100.00
76374;BME280;65197;50.164;8.012;2023-12-22T11:47:10;72533.53;;;-144.13;100.00
76374;BME280;65197;50.164;8.012;2023-12-22T11:49:36;72527.69;;;-144.13;100.00
76374;BME280;65197;50.164;8.012;2023-12-22T11:52:12;72527.69;;;-144.13;100.00
76374;BME280;65197;50.164;8.012;2023-12-22T11:54:46;72519.88;;;-144.13;100.00
76374;BME280;65197;50.164;8.012;2023-12-22T11:59:52;72529.63;;;-144.13;100.00
76374;BME280;65197;50.164;8.012;2023-12-22T12:02:18;72519.88;;;-144.13;100.00
76374;BME280;65197;50.164;8.012;2023-12-22T12:04:43;72508.19;;;-144.13;100.00
76374;BME280;65197;50.164;8.012;2023-12-22T12:10:01;72492.56;;;-144.13;100.00
76374;BME280;65197;50.164;8.012;2023-12-22T12:12:27;72484.78;;;-144.13;100.00
76374;BME280;65197;50.164;8.012;2023-12-22T12:14:56;72490.63;;;-144.13;100.00
76374;BME280;65197;50.164;8.012;2023-12-22T12:17:23;72480.88;;;-144.13;100.00
76374;BME280;65197;50.164;8.012;2023-12-22T12:19:49;72480.88;;;-144.13;100.00
76374;BME280;65197;50.164;8.012;2023-12-22T12:22:14;72469.19;;;-144.13;100.00
76374;BME280;65197;50.164;8.012;2023-12-22T12:24:41;72451.63;;;-144.13;100.00
76374;BME280;65197;50.164;8.012;2023-12-22T12:27:07;72453.56;;;-144.13;100.00
76374;BME280;65197;50.164;8.012;2023-12-22T12:29:33;72445.78;;;-144.13;100.00